Goteborg Save Air Force Base, Sweden

1:28 AM CET on January 30, 2015 (GMT +0100)
Save Air Base | Change Station
CLOSE
Current Station
Airport
Location: Goteborg Save AFB,
Elevation: 59 ft
Nearby Weather Stations

Elev 59 ft 57.77 °N, 11.87 °E | Updated 8 minutes ago

Light Snow
Light Snow
34 °F
Feels Like 29 °F
N
6
Wind Variable Wind from South

Today
High -- | Low -- °F
--% Chance of Precip.
Yesterday
High -- | Low -- °F
Precip. -- in
8:20 AM 4:32 PM
Waxing Gibbous, 78% visible
Pressure 28.71 in
Visibility 1.4 miles
Clouds Few 200 ft
Mostly Cloudy 600 ft
Mostly Cloudy 900 ft
Windchill 29 °F
Dew Point 32 °F
Humidity 93%
Rainfall 0.00 in
Snow Depth Not available.
UV 0 out of 12
Pollen Not available.
Air Quality Not available.
Flu Activity Not available.
METAR ESGP 300020Z 17005KT 2300 -SN FEW002 BKN006 BKN009 01/M00 Q0972 R19///99//

More Conditions Fewer Conditions

Pressure 28.71 in
Visibility 1.4 miles
Clouds Few 200 ft
Mostly Cloudy 600 ft
Mostly Cloudy 900 ft
Windchill 29 °F
Dew Point 32 °F
Humidity 93%
Rainfall 0.00 in
Snow Depth Not available.
UV 0 out of 12
Pollen Not available.
Air Quality Not available.
Flu Activity Not available.
METAR ESGP 300020Z 17005KT 2300 -SN FEW002 BKN006 BKN009 01/M00 Q0972 R19///99//

More Conditions Fewer Conditions

10-Day Weather Forecast

Almanac

Astronomy

Jan. 30, 2015 Rise Set
Actual Time
Civil Twilight
Nautical Twilight
Astronomical Twilight
Moon
Length of Visible Light
Length of Day
Tomorrow will be .
, % of the Moon is Illuminated

Today's Extremes

Country Highs Country Lows

Community

WunderPhotos

Upload Photos

1,791,651 photos uploaded!

WunderBlogs® & News

Nearby

Air Quality

  Air Quality AQ Index Pollutant
Not available.

Snow Depth

Station Depth Elevation

Earthquake Activity

City Distance Mag. Time & Date
Minimum magnitude displayed is 2.5.

Coastal Water Temperatures

Place Temperature

Nearby Weather Stations